Time;durP1;ratioP1;P1;durP2;ratioP2;P2;SDS_P1;SDS_P2;PMS_P1;PMS_P2;Temp;Humidity;BMP_temperature;BMP_pressure;BME280_temperature;BME280_humidity;BME280_pressure;Samples;Min_cycle;Max_cycle;Signal;HPM_P1;HPM_P2
2024/02/15 00:01:49;;;;;;;6.65;1.30;;;13.10;99.90;;;;;;5043997;23;20158;-94
2024/02/15 00:03:50;;;;;;;5.95;1.80;;;13.30;99.90;;;;;;5044290;23;20165;-93
2024/02/15 00:05:51;;;;;;;3.80;1.55;;;13.30;99.90;;;;;;5044213;23;20260;-93
2024/02/15 00:07:52;;;;;;;7.10;1.58;;;13.20;99.90;;;;;;5044473;23;20170;-92
2024/02/15 00:09:56;;;;;;;7.95;1.25;;;13.30;99.90;;;;;;5044324;23;20170;-92
2024/02/15 00:11:59;;;;;;;8.88;1.50;;;13.30;99.90;;;;;;5044060;23;20154;-92
2024/02/15 00:14:00;;;;;;;10.98;2.08;;;13.20;99.90;;;;;;5044377;23;20525;-92
2024/02/15 00:16:01;;;;;;;6.05;1.15;;;13.10;99.90;;;;;;5068458;23;20233;-93
2024/02/15 00:18:03;;;;;;;3.08;0.90;;;13.10;99.90;;;;;;5044257;23;20178;-93
2024/02/15 00:20:09;;;;;;;3.78;1.10;;;13.10;99.90;;;;;;5044003;23;20614;-92
2024/02/15 00:22:10;;;;;;;12.23;1.63;;;13.10;99.90;;;;;;5012199;23;1332399;-96
2024/02/15 00:24:11;;;;;;;6.20;1.77;;;13.10;99.90;;;;;;5045221;23;20591;-93
2024/02/15 00:26:12;;;;;;;2.88;1.20;;;13.10;99.90;;;;;;5049223;23;20166;-93
2024/02/15 00:28:13;;;;;;;2.30;1.05;;;13.20;99.90;;;;;;5083132;23;20177;-93
2024/02/15 00:30:16;;;;;;;12.43;2.13;;;13.20;99.90;;;;;;5065324;23;20158;-94
2024/02/15 00:32:17;;;;;;;3.83;1.85;;;13.10;99.90;;;;;;5066700;23;20166;-92
2024/02/15 00:34:18;;;;;;;7.32;1.63;;;13.00;99.90;;;;;;5069212;23;20529;-93
2024/02/15 00:36:19;;;;;;;6.18;1.83;;;13.10;99.90;;;;;;5045035;23;20222;-92
2024/02/15 00:38:20;;;;;;;6.85;1.77;;;13.00;99.90;;;;;;5044828;23;20181;-93
2024/02/15 00:40:21;;;;;;;6.22;1.50;;;13.00;99.90;;;;;;5044958;23;20158;-93
2024/02/15 00:42:22;;;;;;;9.82;3.00;;;13.00;99.90;;;;;;5045046;23;20158;-93
2024/02/15 00:44:23;;;;;;;7.65;1.92;;;13.00;99.90;;;;;;5045061;23;20155;-92
2024/02/15 00:46:27;;;;;;;11.45;2.08;;;13.00;99.90;;;;;;5045034;23;20223;-92
2024/02/15 00:48:29;;;;;;;11.65;3.22;;;12.90;99.90;;;;;;5045133;23;20645;-93
2024/02/15 00:50:30;;;;;;;5.88;2.08;;;12.80;99.90;;;;;;5044786;23;20190;-94
2024/02/15 00:52:31;;;;;;;8.55;1.80;;;12.80;99.90;;;;;;5044832;23;20165;-93
2024/02/15 00:54:32;;;;;;;6.45;2.17;;;12.80;99.90;;;;;;5044917;23;20162;-93
2024/02/15 00:56:33;;;;;;;5.60;2.38;;;12.80;99.90;;;;;;5044804;23;20228;-93
2024/02/15 00:58:34;;;;;;;10.77;1.88;;;12.70;99.90;;;;;;5044846;23;20777;-92
2024/02/15 01:00:35;;;;;;;12.48;2.22;;;12.70;99.90;;;;;;5044875;23;20234;-92
2024/02/15 01:02:36;;;;;;;11.95;2.40;;;12.80;99.90;;;;;;5044558;23;20168;-92
2024/02/15 01:04:36;;;;;;;6.90;2.03;;;12.90;99.90;;;;;;5044790;23;20559;-92
2024/02/15 01:06:37;;;;;;;10.23;2.45;;;12.90;99.90;;;;;;5045027;23;20158;-93
2024/02/15 01:08:38;;;;;;;7.28;2.92;;;12.90;99.90;;;;;;5044840;23;20631;-93
2024/02/15 01:10:39;;;;;;;10.63;2.03;;;12.90;99.90;;;;;;5045342;23;20237;-93
2024/02/15 01:12:41;;;;;;;8.75;2.38;;;12.80;99.90;;;;;;5044603;23;20656;-94
2024/02/15 01:14:43;;;;;;;7.00;1.95;;;12.70;99.90;;;;;;5044781;23;20157;-92
2024/02/15 01:16:44;;;;;;;8.75;2.25;;;12.80;99.90;;;;;;5044874;23;20155;-93
2024/02/15 01:18:45;;;;;;;7.07;1.90;;;12.80;99.90;;;;;;5044597;23;20645;-92
2024/02/15 01:20:46;;;;;;;5.20;1.77;;;12.90;99.90;;;;;;5068963;23;20237;-92
2024/02/15 01:22:47;;;;;;;8.20;2.45;;;12.80;99.90;;;;;;5068607;23;20165;-94
2024/02/15 01:24:48;;;;;;;6.57;2.13;;;12.90;99.90;;;;;;5044910;23;20158;-92
2024/02/15 01:26:49;;;;;;;15.80;2.28;;;12.80;99.90;;;;;;5044619;23;20197;-92
2024/02/15 01:28:50;;;;;;;10.77;2.88;;;12.80;99.90;;;;;;5044837;23;20177;-92
2024/02/15 01:30:51;;;;;;;14.18;2.65;;;12.80;99.90;;;;;;5044842;23;20165;-93
2024/02/15 01:32:52;;;;;;;14.35;3.63;;;12.80;99.90;;;;;;5044700;23;20265;-94
2024/02/15 01:34:54;;;;;;;12.00;2.38;;;12.80;99.90;;;;;;5044740;23;20161;-94
2024/02/15 01:36:55;;;;;;;7.18;1.85;;;12.80;99.90;;;;;;5044725;23;20161;-93
2024/02/15 01:38:56;;;;;;;9.15;2.53;;;12.80;99.90;;;;;;5068862;23;20178;-92
2024/02/15 01:40:57;;;;;;;10.80;2.35;;;12.80;99.90;;;;;;5044874;23;20158;-93
2024/02/15 01:43:00;;;;;;;17.45;2.83;;;12.70;99.90;;;;;;5044742;23;20241;-94
2024/02/15 01:45:02;;;;;;;5.95;2.10;;;12.60;99.90;;;;;;5044417;23;20213;-93
2024/02/15 01:47:04;;;;;;;7.60;1.85;;;12.60;99.90;;;;;;5044797;23;20161;-92
2024/02/15 01:49:07;;;;;;;12.90;2.53;;;12.70;99.90;;;;;;5044746;23;20150;-92
2024/02/15 01:51:11;;;;;;;11.27;3.28;;;12.80;99.90;;;;;;5069062;23;20240;-92
2024/02/15 01:53:13;;;;;;;8.60;1.85;;;12.80;99.90;;;;;;5045121;23;20281;-92
2024/02/15 01:55:18;;;;;;;5.22;2.03;;;12.70;99.90;;;;;;5044964;23;20154;-93
2024/02/15 01:57:22;;;;;;;4.53;2.03;;;12.70;99.90;;;;;;5044341;23;20212;-93
2024/02/15 01:59:25;;;;;;;7.75;1.65;;;12.60;99.90;;;;;;5044734;23;20154;-94
2024/02/15 02:01:26;;;;;;;4.95;1.23;;;12.60;99.90;;;;;;5068906;23;20244;-94
2024/02/15 02:03:27;;;;;;;7.28;1.95;;;12.60;99.90;;;;;;5044590;23;20158;-95
2024/02/15 02:05:30;;;;;;;10.23;2.22;;;12.80;99.90;;;;;;5043837;23;20162;-93
2024/02/15 02:07:31;;;;;;;6.15;1.63;;;12.80;99.90;;;;;;5044649;23;20177;-93
2024/02/15 02:09:32;;;;;;;4.43;1.50;;;12.70;99.90;;;;;;5044696;23;20159;-92
2024/02/15 02:11:33;;;;;;;5.70;1.85;;;12.70;99.90;;;;;;5044811;23;20219;-93
2024/02/15 02:13:35;;;;;;;2.53;0.80;;;12.60;99.90;;;;;;5044524;23;20198;-92
2024/02/15 02:15:37;;;;;;;2.72;1.52;;;12.50;99.90;;;;;;5068561;23;20160;-92
2024/02/15 02:17:39;;;;;;;3.05;0.82;;;12.50;99.90;;;;;;5045641;23;20213;-92
2024/02/15 02:19:42;;;;;;;2.65;1.35;;;12.60;99.90;;;;;;5046005;23;20309;-91
2024/02/15 02:21:44;;;;;;;3.50;1.33;;;12.60;99.90;;;;;;5045770;23;20174;-93
2024/02/15 02:23:51;;;;;;;3.88;0.80;;;12.60;99.90;;;;;;5045719;23;20166;-94
2024/02/15 02:25:54;;;;;;;2.83;1.00;;;12.70;99.90;;;;;;5046181;23;20165;-91
2024/02/15 02:27:56;;;;;;;2.30;1.00;;;12.70;99.90;;;;;;5045629;23;20166;-92
2024/02/15 02:29:59;;;;;;;1.63;1.00;;;12.80;99.90;;;;;;5070096;23;20154;-92
2024/02/15 02:32:00;;;;;;;2.50;0.95;;;12.80;99.90;;;;;;5046029;23;20151;-92
2024/02/15 02:34:01;;;;;;;3.60;1.17;;;12.90;99.90;;;;;;5045973;23;20216;-92
2024/02/15 02:36:02;;;;;;;4.38;1.23;;;12.90;99.90;;;;;;5045812;23;20162;-93
2024/02/15 02:38:03;;;;;;;3.95;1.08;;;12.80;99.90;;;;;;5045882;23;20182;-92
2024/02/15 02:40:08;;;;;;;3.25;0.85;;;12.80;99.90;;;;;;5070138;23;20181;-92
2024/02/15 02:42:09;;;;;;;5.78;1.00;;;12.90;99.90;;;;;;5070071;23;20156;-93
2024/02/15 02:44:10;;;;;;;4.28;0.85;;;12.90;99.90;;;;;;5045660;23;20150;-95
2024/02/15 02:46:12;;;;;;;5.93;1.13;;;12.80;99.90;;;;;;5045809;23;20174;-92
2024/02/15 02:48:13;;;;;;;5.82;1.48;;;12.80;99.90;;;;;;5045894;23;20177;-93
2024/02/15 02:50:14;;;;;;;1.25;0.45;;;12.70;99.90;;;;;;5045877;23;20166;-94
2024/02/15 02:52:15;;;;;;;1.48;0.63;;;12.60;99.90;;;;;;5046082;23;20196;-91
2024/02/15 02:54:16;;;;;;;4.30;1.20;;;12.60;99.90;;;;;;5046212;23;20217;-94
2024/02/15 02:56:18;;;;;;;1.63;0.80;;;12.60;99.90;;;;;;5046295;23;20233;-94
2024/02/15 02:58:19;;;;;;;2.72;0.82;;;12.50;99.90;;;;;;5055519;23;20178;-92
2024/02/15 03:00:21;;;;;;;2.45;0.50;;;12.50;99.90;;;;;;5085221;23;20169;-92
2024/02/15 03:02:22;;;;;;;2.50;0.70;;;12.50;99.90;;;;;;5092873;23;20180;-93
2024/02/15 03:04:23;;;;;;;5.22;0.82;;;12.40;99.90;;;;;;5062430;23;20644;-93
2024/02/15 03:06:27;;;;;;;3.88;0.60;;;12.40;99.90;;;;;;5045878;23;20162;-93
2024/02/15 03:08:28;;;;;;;1.52;0.68;;;12.40;99.90;;;;;;5045591;23;20570;-92
2024/02/15 03:10:29;;;;;;;0.68;0.32;;;12.30;99.90;;;;;;5045903;23;20158;-94
2024/02/15 03:12:31;;;;;;;2.13;0.43;;;12.30;99.90;;;;;;5045715;23;20182;-94
2024/02/15 03:14:35;;;;;;;2.53;0.90;;;12.30;99.90;;;;;;5069911;23;20165;-93
2024/02/15 03:16:39;;;;;;;0.55;0.47;;;12.30;99.90;;;;;;5045891;23;20219;-93
2024/02/15 03:18:41;;;;;;;1.58;0.80;;;12.30;99.90;;;;;;5045367;23;20265;-95
2024/02/15 03:20:42;;;;;;;3.95;0.90;;;12.40;99.90;;;;;;5070064;23;20181;-93
2024/02/15 03:22:43;;;;;;;4.35;1.13;;;12.40;99.90;;;;;;5045885;23;20169;-93
2024/02/15 03:24:44;;;;;;;4.32;1.38;;;12.40;99.90;;;;;;5045444;23;20201;-93
2024/02/15 03:26:45;;;;;;;3.90;1.23;;;12.40;99.90;;;;;;5045628;23;20186;-93
2024/02/15 03:28:46;;;;;;;5.30;0.55;;;12.40;99.90;;;;;;5045439;23;20189;-93
2024/02/15 03:30:47;;;;;;;6.22;0.75;;;12.40;99.90;;;;;;5046078;23;20165;-93
2024/02/15 03:32:50;;;;;;;5.65;1.02;;;12.50;99.90;;;;;;5069863;23;20197;-94
2024/02/15 03:34:51;;;;;;;2.22;0.80;;;12.50;99.90;;;;;;5070224;23;20145;-92
2024/02/15 03:36:53;;;;;;;3.13;1.35;;;12.50;99.90;;;;;;5045471;23;20158;-93
2024/02/15 03:38:55;;;;;;;1.42;0.88;;;12.60;99.90;;;;;;5045483;23;20178;-93
2024/02/15 03:40:56;;;;;;;2.35;0.93;;;12.50;99.90;;;;;;5045494;23;20217;-93
2024/02/15 03:42:57;;;;;;;1.30;0.70;;;12.50;99.90;;;;;;5045436;23;20225;-93
2024/02/15 03:44:58;;;;;;;5.40;0.98;;;12.50;99.90;;;;;;5045408;23;20158;-94
2024/02/15 03:46:59;;;;;;;2.30;0.70;;;12.60;99.90;;;;;;5045393;23;20347;-93
2024/02/15 03:49:00;;;;;;;9.23;1.95;;;12.50;99.90;;;;;;5044956;23;20185;-93
2024/02/15 03:51:01;;;;;;;3.38;1.13;;;12.50;99.90;;;;;;5045425;23;20154;-93
2024/02/15 03:53:02;;;;;;;9.40;0.93;;;12.40;99.90;;;;;;5045301;23;20261;-92
2024/02/15 03:55:04;;;;;;;0.90;0.60;;;12.40;99.90;;;;;;5045493;23;20150;-93
2024/02/15 03:57:06;;;;;;;5.40;1.42;;;12.40;99.90;;;;;;5045647;23;20569;-94
2024/02/15 03:59:08;;;;;;;2.58;1.23;;;12.30;99.90;;;;;;5045554;23;20553;-94
2024/02/15 04:01:09;;;;;;;2.15;0.45;;;12.30;99.90;;;;;;5045822;23;20160;-93
2024/02/15 04:03:10;;;;;;;5.13;1.02;;;12.20;99.90;;;;;;5045418;23;20154;-94
2024/02/15 04:05:12;;;;;;;6.82;1.55;;;12.20;99.90;;;;;;5045358;23;20154;-93
2024/02/15 04:07:17;;;;;;;0.57;0.50;;;12.20;99.90;;;;;;5045573;23;20601;-94
2024/02/15 04:09:20;;;;;;;3.97;0.60;;;12.20;99.90;;;;;;5045553;23;20150;-94
2024/02/15 04:11:21;;;;;;;1.55;0.50;;;12.20;99.90;;;;;;5045083;23;20211;-94
2024/02/15 04:13:22;;;;;;;2.15;0.60;;;12.20;99.90;;;;;;5045028;23;20194;-95
2024/02/15 04:15:23;;;;;;;1.50;0.60;;;12.30;99.90;;;;;;5045401;23;20158;-92
2024/02/15 04:17:23;;;;;;;0.73;0.45;;;12.30;99.90;;;;;;5044962;23;20161;-94
2024/02/15 04:19:24;;;;;;;4.18;0.77;;;12.30;99.90;;;;;;5069198;23;20150;-93
2024/02/15 04:21:27;;;;;;;5.70;0.95;;;12.50;99.90;;;;;;5045101;23;20154;-93
2024/02/15 04:23:29;;;;;;;2.33;0.80;;;12.60;99.90;;;;;;5045041;23;20225;-93
2024/02/15 04:25:31;;;;;;;1.73;0.57;;;12.70;99.90;;;;;;5045282;23;20154;-94
2024/02/15 04:27:32;;;;;;;2.83;0.95;;;12.70;99.90;;;;;;5045410;23;20629;-94
2024/02/15 04:29:34;;;;;;;2.50;0.75;;;12.60;99.90;;;;;;5045295;23;20309;-93
2024/02/15 04:31:38;;;;;;;3.38;0.65;;;12.80;99.90;;;;;;5045566;23;20155;-92
2024/02/15 04:33:40;;;;;;;7.70;1.50;;;12.80;99.90;;;;;;5069046;23;20193;-92
2024/02/15 04:35:41;;;;;;;7.38;0.57;;;12.80;99.90;;;;;;5044955;23;20155;-92
2024/02/15 04:37:42;;;;;;;3.88;0.73;;;12.80;99.90;;;;;;5069463;23;20508;-94
2024/02/15 04:39:43;;;;;;;1.27;0.73;;;12.80;99.90;;;;;;5044941;23;20201;-93
2024/02/15 04:41:46;;;;;;;4.20;0.90;;;12.90;99.90;;;;;;5069992;23;20613;-93
2024/02/15 04:43:47;;;;;;;5.97;1.05;;;13.10;99.90;;;;;;5069437;23;20160;-93
2024/02/15 04:45:48;;;;;;;7.85;1.80;;;13.00;99.90;;;;;;5044800;23;20618;-94
2024/02/15 04:47:52;;;;;;;5.47;1.88;;;12.90;99.90;;;;;;5044676;23;20172;-93
2024/02/15 04:49:53;;;;;;;4.75;1.30;;;12.80;99.90;;;;;;5044676;23;20582;-94
2024/02/15 04:51:54;;;;;;;5.47;1.98;;;12.70;99.90;;;;;;5045092;23;20288;-93
2024/02/15 04:53:57;;;;;;;5.07;1.40;;;12.60;99.90;;;;;;5069375;23;20513;-93
2024/02/15 04:56:00;;;;;;;5.10;1.88;;;12.70;99.90;;;;;;5045323;23;20588;-94
2024/02/15 04:58:02;;;;;;;7.60;1.90;;;12.70;99.90;;;;;;5044842;23;20170;-94
2024/02/15 05:00:10;;;;;;;7.47;1.52;;;12.70;99.90;;;;;;5069139;23;20604;-95
2024/02/15 05:02:11;;;;;;;4.75;1.42;;;12.60;99.90;;;;;;5044855;23;20161;-93
2024/02/15 05:04:13;;;;;;;8.70;1.63;;;12.60;99.90;;;;;;5045362;23;20241;-94
2024/02/15 05:06:14;;;;;;;8.50;2.20;;;12.50;99.90;;;;;;5045065;23;20241;-94
2024/02/15 05:08:15;;;;;;;6.13;1.83;;;12.50;99.90;;;;;;5068942;23;20248;-94
2024/02/15 05:10:16;;;;;;;4.88;1.75;;;12.30;99.90;;;;;;5069328;23;20186;-93
2024/02/15 05:12:27;;;;;;;6.25;2.05;;;12.40;99.90;;;;;;5045194;23;20162;-94
2024/02/15 05:14:28;;;;;;;5.40;1.23;;;12.40;99.90;;;;;;5044620;23;20229;-94
2024/02/15 05:16:31;;;;;;;7.40;1.73;;;12.50;99.90;;;;;;5020914;23;20162;-95
2024/02/15 05:18:34;;;;;;;9.18;2.00;;;12.70;99.90;;;;;;5020892;23;20175;-93
2024/02/15 05:20:35;;;;;;;8.38;1.90;;;12.70;99.90;;;;;;5044763;23;20200;-94
2024/02/15 05:22:38;;;;;;;6.53;1.58;;;12.60;99.90;;;;;;5044479;23;20194;-93
2024/02/15 05:24:39;;;;;;;5.40;2.08;;;12.60;99.90;;;;;;5068983;23;20168;-94
2024/02/15 05:26:42;;;;;;;7.43;1.92;;;12.60;99.90;;;;;;5045028;23;20482;-94
2024/02/15 05:28:43;;;;;;;7.47;1.98;;;12.40;99.90;;;;;;5048494;23;20170;-94
2024/02/15 05:30:44;;;;;;;3.97;1.85;;;12.50;99.90;;;;;;5064126;23;20158;-93
2024/02/15 05:32:45;;;;;;;6.85;2.13;;;12.50;99.90;;;;;;5066531;23;20182;-93
2024/02/15 05:34:47;;;;;;;3.75;1.50;;;12.40;99.90;;;;;;5067731;23;20155;-93
2024/02/15 05:36:49;;;;;;;8.07;2.13;;;12.40;99.90;;;;;;5023640;23;20620;-94
2024/02/15 05:38:52;;;;;;;6.28;0.77;;;12.40;99.90;;;;;;5044462;23;20260;-94
2024/02/15 05:40:53;;;;;;;10.43;2.05;;;12.30;99.90;;;;;;5044722;23;20154;-94
2024/02/15 05:42:58;;;;;;;10.20;2.63;;;12.30;99.90;;;;;;5045184;23;20150;-93
2024/02/15 05:45:36;;;;;;;3.42;1.67;;;12.30;99.90;;;;;;5044690;23;20165;-93
2024/02/15 05:47:37;;;;;;;7.22;2.40;;;12.30;99.90;;;;;;5045079;23;20173;-93
2024/02/15 05:49:38;;;;;;;7.80;1.70;;;12.40;99.90;;;;;;5045258;23;20154;-93
2024/02/15 05:51:39;;;;;;;5.20;2.03;;;12.30;99.90;;;;;;5045221;23;20157;-92
2024/02/15 05:53:41;;;;;;;4.65;1.88;;;12.20;99.90;;;;;;5046432;23;20264;-91
2024/02/15 05:55:44;;;;;;;5.90;1.92;;;12.20;99.90;;;;;;5046404;23;20155;-92
2024/02/15 05:57:45;;;;;;;6.47;1.10;;;12.20;99.90;;;;;;5070354;23;20177;-92
2024/02/15 05:59:46;;;;;;;4.20;1.30;;;12.10;99.90;;;;;;5046231;23;20223;-92
2024/02/15 06:01:50;;;;;;;5.95;1.88;;;12.10;99.90;;;;;;5070469;23;20169;-91
2024/02/15 06:03:54;;;;;;;4.50;1.88;;;12.10;99.90;;;;;;5071135;23;20483;-94
2024/02/15 06:05:59;;;;;;;4.32;1.10;;;12.10;99.90;;;;;;5047536;23;20153;-94
2024/02/15 06:08:04;;;;;;;3.22;0.95;;;12.10;99.90;;;;;;5070790;23;20173;-94
2024/02/15 06:10:11;;;;;;;2.85;1.05;;;12.10;99.90;;;;;;5070925;23;20489;-94
2024/02/15 06:12:14;;;;;;;4.90;1.73;;;12.10;99.90;;;;;;5047470;23;20158;-95
2024/02/15 06:14:21;;;;;;;4.45;1.33;;;12.10;99.90;;;;;;5046379;23;20186;-93
2024/02/15 06:16:41;;;;;;;6.68;1.83;;;12.10;99.90;;;;;;5046408;23;20150;-95
2024/02/15 06:18:47;;;;;;;7.18;1.92;;;12.10;99.90;;;;;;5046114;23;20177;-94
2024/02/15 06:20:51;;;;;;;6.10;1.52;;;12.20;99.90;;;;;;5048141;23;20191;-94
2024/02/15 06:22:56;;;;;;;6.60;2.03;;;12.20;99.90;;;;;;5071001;23;20636;-94
2024/02/15 06:25:01;;;;;;;4.22;1.35;;;12.20;99.90;;;;;;5046863;23;20190;-95
2024/02/15 06:27:05;;;;;;;7.78;1.50;;;12.20;99.90;;;;;;5048636;23;20573;-93
2024/02/15 06:41:19;;;;;;;6.57;1.90;;;12.20;99.90;;;;;;5072378;23;20146;-93
2024/02/15 06:43:20;;;;;;;8.13;2.08;;;12.10;99.90;;;;;;5046452;23;20162;-95
2024/02/15 06:45:32;;;;;;;10.15;1.52;;;12.10;99.90;;;;;;5071628;23;20155;-95
2024/02/15 06:47:32;;;;;;;6.88;1.50;;;12.20;99.90;;;;;;5045780;23;20661;-94
2024/02/15 06:49:39;;;;;;;4.10;1.55;;;12.20;99.90;;;;;;5070889;23;20236;-96
2024/02/15 06:51:46;;;;;;;2.63;1.00;;;12.20;99.90;;;;;;5046665;23;20170;-95
2024/02/15 06:53:55;;;;;;;9.63;1.40;;;12.20;99.90;;;;;;5070212;23;20195;-94
2024/02/15 06:55:56;;;;;;;3.22;1.13;;;12.20;99.90;;;;;;5073351;23;20173;-94
2024/02/15 06:57:57;;;;;;;3.03;0.90;;;12.30;99.90;;;;;;5046249;23;20182;-95
2024/02/15 07:00:10;;;;;;;2.15;1.27;;;12.30;99.90;;;;;;5022141;23;20166;-94
2024/02/15 07:02:22;;;;;;;4.15;1.42;;;12.20;99.90;;;;;;5072688;23;20293;-94
2024/02/15 07:04:42;;;;;;;1.65;0.98;;;12.20;99.90;;;;;;5068546;23;20212;-94
2024/02/15 07:06:49;;;;;;;3.97;1.02;;;12.20;99.90;;;;;;5048379;23;20161;-93
2024/02/15 07:08:57;;;;;;;8.65;1.00;;;12.20;99.90;;;;;;5049534;23;20170;-93
2024/02/15 07:11:07;;;;;;;11.52;2.17;;;12.30;99.90;;;;;;5050718;23;20185;-93
2024/02/15 07:13:10;;;;;;;3.75;0.95;;;12.30;99.90;;;;;;5048521;23;20182;-94
2024/02/15 07:15:14;;;;;;;5.80;0.40;;;12.20;99.90;;;;;;5046196;23;20162;-94
2024/02/15 07:17:17;;;;;;;4.45;1.08;;;12.20;99.90;;;;;;5070985;23;20488;-94
2024/02/15 07:19:19;;;;;;;5.38;1.27;;;12.30;99.90;;;;;;5049410;23;20451;-94
2024/02/15 07:21:26;;;;;;;5.35;1.52;;;12.30;99.90;;;;;;5047394;23;20486;-96
2024/02/15 07:23:29;;;;;;;2.17;1.08;;;12.30;99.90;;;;;;5049042;23;20222;-94
2024/02/15 07:25:30;;;;;;;2.00;0.80;;;12.30;99.90;;;;;;5024061;23;20526;-94
2024/02/15 07:27:54;;;;;;;3.38;1.38;;;12.30;99.90;;;;;;5046481;23;20174;-95
2024/02/15 07:29:59;;;;;;;6.22;0.88;;;12.30;99.90;;;;;;5046905;23;20150;-95
2024/02/15 07:32:08;;;;;;;7.93;1.30;;;12.20;99.90;;;;;;5050161;23;20150;-94
2024/02/15 07:34:10;;;;;;;4.32;0.70;;;12.20;99.90;;;;;;5073434;23;20624;-93
2024/02/15 07:36:10;;;;;;;2.85;1.67;;;12.30;99.90;;;;;;5045530;23;20168;-95
2024/02/15 07:38:12;;;;;;;2.65;1.17;;;12.30;99.90;;;;;;5046538;23;20636;-93
2024/02/15 07:40:13;;;;;;;1.85;0.60;;;12.40;99.90;;;;;;5046433;23;20154;-94
2024/02/15 07:42:17;;;;;;;2.38;0.90;;;12.50;99.90;;;;;;5070101;23;20244;-95
2024/02/15 07:44:27;;;;;;;2.45;0.70;;;12.50;99.90;;;;;;5072100;23;20189;-94
2024/02/15 07:46:44;;;;;;;5.20;1.65;;;12.60;99.90;;;;;;5069823;23;20157;-93
2024/02/15 07:48:52;;;;;;;3.58;0.80;;;12.60;99.90;;;;;;5049654;23;20490;-94
2024/02/15 07:50:53;;;;;;;3.28;1.05;;;12.60;99.90;;;;;;5045606;23;20150;-95
2024/02/15 07:52:58;;;;;;;4.40;0.60;;;12.70;99.90;;;;;;5022243;23;20186;-92
2024/02/15 07:55:07;;;;;;;3.33;0.88;;;12.70;99.90;;;;;;5025335;23;20169;-94
2024/02/15 07:57:18;;;;;;;1.88;0.63;;;12.70;99.90;;;;;;5071248;23;20149;-93
2024/02/15 07:59:25;;;;;;;1.52;0.52;;;12.70;99.90;;;;;;5047879;23;20162;-94
2024/02/15 08:01:50;;;;;;;4.70;0.60;;;12.70;99.90;;;;;;5060439;23;20145;-94
2024/02/15 08:03:52;;;;;;;3.13;0.47;;;12.70;99.90;;;;;;5091234;23;20142;-95
2024/02/15 08:05:56;;;;;;;3.13;0.52;;;12.70;99.90;;;;;;5069018;23;20139;-94
2024/02/15 08:08:00;;;;;;;3.72;0.70;;;12.80;99.90;;;;;;5073212;23;20182;-95
2024/02/15 08:10:07;;;;;;;4.97;0.63;;;12.80;99.90;;;;;;5046295;23;20205;-94
2024/02/15 08:12:08;;;;;;;5.75;0.38;;;12.80;99.90;;;;;;5048512;23;20146;-95
2024/02/15 08:14:20;;;;;;;6.95;1.05;;;12.80;99.90;;;;;;5046710;23;20194;-95
2024/02/15 08:16:27;;;;;;;6.65;0.73;;;12.80;99.90;;;;;;5045996;23;20150;-95
2024/02/15 08:18:36;;;;;;;2.30;0.40;;;12.80;99.90;;;;;;5045120;23;20245;-95
2024/02/15 08:20:39;;;;;;;4.57;0.30;;;12.80;99.90;;;;;;5045819;23;20158;-95
2024/02/15 08:22:48;;;;;;;1.02;0.70;;;13.00;99.90;;;;;;5046355;23;20178;-95
2024/02/15 08:24:52;;;;;;;0.90;0.40;;;13.10;99.90;;;;;;5046249;23;20166;-95
2024/02/15 08:26:54;;;;;;;0.52;0.32;;;13.00;99.90;;;;;;5069426;23;20153;-94
2024/02/15 08:28:55;;;;;;;1.38;0.35;;;13.00;99.90;;;;;;5045330;23;20189;-94
2024/02/15 08:30:57;;;;;;;1.20;0.40;;;13.00;99.90;;;;;;5045522;23;20470;-95
2024/02/15 08:32:58;;;;;;;8.43;1.08;;;13.10;99.90;;;;;;5044984;23;20199;-93
2024/02/15 08:34:59;;;;;;;1.33;0.50;;;13.10;99.90;;;;;;5044918;23;20619;-94
2024/02/15 08:37:00;;;;;;;0.95;0.40;;;13.20;99.90;;;;;;5045099;23;20514;-94
2024/02/15 08:39:01;;;;;;;1.77;0.88;;;13.20;99.90;;;;;;5021300;23;20179;-94
2024/02/15 08:41:04;;;;;;;11.90;1.27;;;13.30;99.90;;;;;;5045703;23;20641;-94
2024/02/15 08:43:15;;;;;;;1.65;0.35;;;13.50;99.90;;;;;;5045131;23;20193;-94
2024/02/15 08:45:16;;;;;;;3.95;0.55;;;13.60;99.90;;;;;;5045443;23;20182;-93
2024/02/15 08:47:17;;;;;;;4.45;0.50;;;13.50;99.90;;;;;;5045551;23;20168;-93
2024/02/15 08:49:18;;;;;;;0.82;0.65;;;13.50;99.90;;;;;;5069403;23;20185;-94
2024/02/15 08:51:20;;;;;;;1.85;0.40;;;13.50;99.90;;;;;;5044665;23;20174;-95
2024/02/15 08:53:24;;;;;;;0.60;0.40;;;13.50;99.90;;;;;;5069275;23;20549;-94
2024/02/15 08:55:27;;;;;;;1.85;0.35;;;13.50;99.90;;;;;;5044960;23;20162;-94
2024/02/15 08:57:28;;;;;;;5.72;0.55;;;13.50;99.90;;;;;;5045187;23;20182;-94
2024/02/15 08:59:31;;;;;;;1.98;0.50;;;13.50;99.90;;;;;;5044868;23;20153;-95
2024/02/15 09:01:34;;;;;;;0.77;0.30;;;13.60;99.90;;;;;;5045487;23;20496;-96
2024/02/15 09:03:38;;;;;;;0.77;0.45;;;13.70;99.90;;;;;;5069315;23;20150;-94
2024/02/15 09:05:41;;;;;;;1.63;0.55;;;13.60;99.90;;;;;;5069747;23;20169;-94
2024/02/15 09:07:52;;;;;;;1.50;0.43;;;13.80;99.90;;;;;;5046863;23;20652;-94
2024/02/15 09:10:03;;;;;;;2.75;0.60;;;14.00;99.90;;;;;;5069524;23;20618;-94
2024/02/15 09:12:05;;;;;;;1.35;0.40;;;14.00;99.90;;;;;;5045206;23;20158;-95
2024/02/15 09:14:09;;;;;;;2.05;0.50;;;14.10;99.90;;;;;;5069514;23;20201;-95
2024/02/15 09:16:11;;;;;;;2.00;0.43;;;14.00;99.90;;;;;;5045404;23;20186;-95
2024/02/15 09:18:12;;;;;;;0.93;0.40;;;14.00;99.90;;;;;;5046727;23;20209;-95
2024/02/15 09:20:17;;;;;;;0.98;0.38;;;13.90;99.90;;;;;;5068928;23;20161;-95
2024/02/15 09:22:27;;;;;;;3.50;0.70;;;13.80;99.90;;;;;;5045544;23;20170;-95
2024/02/15 09:24:37;;;;;;;2.53;0.60;;;13.90;99.90;;;;;;5045545;23;20162;-93
2024/02/15 09:26:40;;;;;;;2.05;0.63;;;13.90;99.90;;;;;;5021824;23;20677;-95
2024/02/15 09:28:43;;;;;;;6.55;1.33;;;14.20;99.90;;;;;;5068789;23;20181;-95
2024/02/15 09:31:03;;;;;;;2.30;0.98;;;14.30;99.90;;;;;;5050840;23;20521;-95
2024/02/15 09:33:20;;;;;;;9.18;1.65;;;14.50;99.90;;;;;;5049479;23;20190;-94
2024/02/15 09:35:42;;;;;;;2.97;1.38;;;14.70;99.90;;;;;;5058839;23;20193;-95
2024/02/15 09:38:01;;;;;;;4.10;1.05;;;15.10;99.90;;;;;;5063763;23;20341;-96
2024/02/15 09:40:07;;;;;;;9.48;1.88;;;15.20;99.90;;;;;;5059249;23;20206;-95
2024/02/15 09:42:31;;;;;;;7.40;1.45;;;15.50;99.90;;;;;;5080116;23;20157;-96
2024/02/15 09:47:54;;;;;;;6.07;1.55;;;15.20;99.90;;;;;;5128264;23;20184;-94
2024/02/15 09:50:02;;;;;;;2.95;1.60;;;14.90;99.90;;;;;;5054926;23;20158;-96
2024/02/15 09:52:17;;;;;;;4.05;1.35;;;15.00;99.90;;;;;;5086245;23;20142;-95
2024/02/15 09:54:25;;;;;;;1.23;0.60;;;14.90;99.90;;;;;;5086276;23;20193;-95
2024/02/15 09:56:45;;;;;;;8.27;1.77;;;15.00;99.90;;;;;;5076991;23;20182;-94
2024/02/15 09:58:51;;;;;;;8.60;1.38;;;14.80;99.90;;;;;;5086258;23;20181;-94
2024/02/15 10:00:55;;;;;;;3.53;1.45;;;14.60;99.90;;;;;;5061030;23;20544;-94
2024/02/15 10:03:23;;;;;;;6.05;1.60;;;14.60;99.90;;;;;;5083210;23;20162;-93
2024/02/15 10:05:24;;;;;;;4.70;1.35;;;14.60;99.90;;;;;;5056614;23;20162;-94
2024/02/15 10:07:44;;;;;;;4.15;1.40;;;14.90;99.90;;;;;;5060526;23;20165;-93
2024/02/15 10:09:45;;;;;;;3.78;1.30;;;14.90;99.90;;;;;;5086886;23;20161;-94
2024/02/15 10:12:09;;;;;;;2.88;0.93;;;15.20;99.90;;;;;;5040035;23;20170;-94
2024/02/15 10:14:14;;;;;;;4.97;1.17;;;15.10;99.90;;;;;;5004018;23;20199;-93
2024/02/15 10:16:26;;;;;;;3.80;1.33;;;15.10;99.90;;;;;;4973631;23;20229;-93
2024/02/15 10:18:27;;;;;;;7.85;1.27;;;15.20;99.90;;;;;;4973961;23;20180;-93
2024/02/15 10:22:50;;;;;;;2.97;1.00;;;15.60;99.90;;;;;;5010642;23;20166;-94
2024/02/15 10:25:12;;;;;;;2.03;0.77;;;15.80;99.90;;;;;;4996763;23;20242;-94
2024/02/15 10:27:23;;;;;;;2.00;0.63;;;15.80;99.90;;;;;;5025483;23;20173;-94
2024/02/15 10:29:25;;;;;;;2.53;0.40;;;15.70;99.90;;;;;;5030820;23;20162;-92
2024/02/15 10:31:31;;;;;;;2.47;0.80;;;15.80;99.90;;;;;;5018942;23;20144;-95
2024/02/15 10:33:34;;;;;;;2.42;0.77;;;15.80;99.90;;;;;;5008801;23;20286;-93
2024/02/15 10:35:36;;;;;;;3.13;0.70;;;16.10;99.90;;;;;;4997377;23;20708;-94
2024/02/15 10:37:37;;;;;;;1.73;0.60;;;15.80;99.90;;;;;;4976063;23;20181;-92
2024/02/15 10:39:38;;;;;;;1.95;0.75;;;15.80;99.90;;;;;;4976636;23;20212;-96
2024/02/15 10:41:46;;;;;;;2.30;0.90;;;15.80;99.90;;;;;;4998357;23;20155;-94
2024/02/15 10:44:23;;;;;;;2.35;0.75;;;16.00;99.90;;;;;;5067305;23;20206;-95
2024/02/15 10:46:42;;;;;;;1.38;0.57;;;16.20;99.90;;;;;;5048255;23;20556;-96
2024/02/15 10:48:57;;;;;;;1.10;0.47;;;16.40;99.90;;;;;;5070259;23;20174;-93
2024/02/15 10:51:25;;;;;;;;;;;;;;;;;;;;;
2024/02/15 10:53:57;;;;;;;;;;;;;;;;;;;;;
2024/02/15 10:57:16;;;;;;;2.40;0.80;;;16.20;99.90;;;;;;5088803;23;20157;-93
2024/02/15 11:03:13;;;;;;;6.72;0.77;;;16.20;99.90;;;;;;4989089;23;20160;-94
2024/02/15 11:11:56;;;;;;;;;;;;;;;;;;;;;
2024/02/15 11:17:49;;;;;;;4.40;0.40;;;16.80;99.90;;;;;;5058323;23;20161;-95
2024/02/15 11:20:44;;;;;;;;;;;;;;;;;;;;;
2024/02/15 11:22:57;;;;;;;1.63;0.30;;;16.80;99.90;;;;;;5070786;23;20162;-94
2024/02/15 11:25:49;;;;;;;2.08;0.60;;;16.90;99.90;;;;;;5063631;23;20165;-94